createdAt,value
2022-08-07T00:00:26.183Z,20.10
2022-08-07T00:02:53.778Z,20.20
2022-08-07T00:05:23.623Z,20.20
2022-08-07T00:07:59.573Z,20.10
2022-08-07T00:10:30.385Z,20.20
2022-08-07T00:13:02.263Z,20.30
2022-08-07T00:15:46.264Z,20.10
2022-08-07T00:18:23.849Z,20.00
2022-08-07T00:20:57.538Z,20.10
2022-08-07T00:23:30.437Z,20.10
2022-08-07T00:26:02.851Z,20.00
2022-08-07T00:28:41.822Z,20.00
2022-08-07T00:31:16.591Z,19.90
2022-08-07T00:33:47.462Z,19.90
2022-08-07T00:36:16.943Z,19.80
2022-08-07T00:38:44.264Z,19.80
2022-08-07T00:41:14.652Z,20.00
2022-08-07T00:43:59.568Z,19.90
2022-08-07T00:46:30.904Z,19.90
2022-08-07T00:49:02.901Z,19.80
2022-08-07T00:51:57.350Z,19.70
2022-08-07T00:54:19.829Z,19.70
2022-08-07T00:56:51.201Z,19.80
2022-08-07T00:59:20.345Z,19.80
2022-08-07T01:02:04.226Z,19.70
2022-08-07T01:04:43.017Z,19.50
2022-08-07T01:07:11.999Z,19.50
2022-08-07T01:10:05.711Z,19.60
2022-08-07T01:12:30.741Z,19.40
2022-08-07T01:15:01.499Z,19.50
2022-08-07T01:17:31.170Z,19.10
2022-08-07T01:20:16.524Z,19.40
2022-08-07T01:23:00.535Z,19.60
2022-08-07T01:25:55.327Z,19.60
2022-08-07T01:28:24.742Z,19.40
2022-08-07T01:30:55.591Z,19.40
2022-08-07T01:33:25.174Z,19.50
2022-08-07T01:36:12.500Z,19.30
2022-08-07T01:38:45.523Z,19.30
2022-08-07T01:41:26.147Z,19.30
2022-08-07T01:43:57.964Z,19.30
2022-08-07T01:46:26.795Z,19.00
2022-08-07T01:48:55.151Z,19.10
2022-08-07T01:52:04.036Z,19.00
2022-08-07T01:54:33.092Z,18.90
2022-08-07T01:57:27.835Z,19.10
2022-08-07T02:00:13.396Z,18.90
2022-08-07T02:03:12.033Z,18.60
2022-08-07T02:05:59.996Z,18.60
2022-08-07T02:08:38.042Z,18.90
2022-08-07T02:11:08.999Z,18.90
2022-08-07T02:13:57.316Z,18.70
2022-08-07T02:16:33.606Z,18.90
2022-08-07T02:20:06.899Z,18.80
2022-08-07T02:22:02.884Z,18.70
2022-08-07T02:24:35.040Z,18.60
2022-08-07T02:27:03.888Z,18.80
2022-08-07T02:29:43.416Z,18.70
2022-08-07T02:32:23.528Z,18.80
2022-08-07T02:34:58.930Z,18.30
2022-08-07T02:37:34.189Z,18.60
2022-08-07T02:40:29.810Z,18.50
2022-08-07T02:43:00.039Z,18.10
2022-08-07T02:46:00.434Z,18.00
2022-08-07T02:48:18.895Z,18.00
2022-08-07T02:50:52.669Z,18.20
2022-08-07T02:53:28.726Z,18.20
2022-08-07T02:56:03.153Z,18.40
2022-08-07T02:58:36.694Z,18.60
2022-08-07T03:01:16.002Z,18.10
2022-08-07T03:03:49.800Z,18.30
2022-08-07T03:06:25.942Z,18.60
2022-08-07T03:09:02.819Z,18.40
2022-08-07T03:11:32.678Z,18.30
2022-08-07T03:14:02.502Z,18.40
2022-08-07T03:16:34.837Z,18.40
2022-08-07T03:19:03.525Z,18.10
2022-08-07T03:21:33.474Z,18.30
2022-08-07T03:24:20.195Z,18.30
2022-08-07T03:26:57.835Z,18.10
2022-08-07T03:29:44.650Z,17.90
2022-08-07T03:32:30.854Z,18.20
2022-08-07T03:35:17.988Z,18.30
2022-08-07T03:37:55.240Z,18.10
2022-08-07T03:40:31.132Z,17.70
2022-08-07T03:43:13.696Z,17.50
2022-08-07T03:45:47.633Z,17.50
2022-08-07T03:48:19.749Z,17.50
2022-08-07T03:50:55.815Z,17.50
2022-08-07T03:54:33.119Z,17.60
2022-08-07T03:56:32.581Z,17.70
2022-08-07T03:59:08.174Z,17.70
2022-08-07T04:01:46.954Z,17.90
2022-08-07T04:04:18.206Z,18.00
2022-08-07T04:06:50.660Z,18.10
2022-08-07T04:09:23.012Z,17.90
2022-08-07T04:12:26.748Z,17.40
2022-08-07T04:14:46.215Z,17.70
2022-08-07T04:17:21.096Z,17.70
2022-08-07T04:19:54.002Z,17.60
2022-08-07T04:22:29.243Z,17.50
2022-08-07T04:25:02.135Z,17.30
2022-08-07T04:27:35.571Z,17.30
2022-08-07T04:30:20.998Z,17.20
2022-08-07T04:33:08.483Z,17.20
2022-08-07T04:35:38.673Z,17.70
2022-08-07T04:38:13.063Z,17.50
2022-08-07T04:40:52.244Z,17.50
2022-08-07T04:44:09.749Z,17.50
2022-08-07T04:47:03.912Z,17.20
2022-08-07T04:50:07.831Z,17.20
2022-08-07T04:52:54.199Z,17.30
2022-08-07T04:58:16.043Z,17.30
2022-08-07T05:02:03.795Z,17.40
2022-08-07T05:04:53.841Z,17.40
2022-08-07T05:07:36.526Z,17.40
2022-08-07T05:10:16.355Z,17.40
2022-08-07T05:14:44.729Z,17.40
2022-08-07T05:15:53.676Z,17.40
2022-08-07T05:18:30.932Z,17.40
2022-08-07T05:21:04.048Z,17.50
2022-08-07T05:23:38.652Z,17.50
2022-08-07T05:26:15.458Z,17.50
2022-08-07T05:28:52.059Z,17.60
2022-08-07T05:31:38.403Z,17.90
2022-08-07T05:34:20.010Z,17.90
2022-08-07T05:36:55.889Z,18.00
2022-08-07T05:40:16.759Z,18.00
2022-08-07T05:42:36.873Z,18.00
2022-08-07T05:45:25.673Z,17.90
2022-08-07T05:48:03.209Z,17.90
2022-08-07T05:50:42.997Z,18.00
2022-08-07T05:54:12.053Z,17.90
2022-08-07T05:56:03.750Z,18.00
2022-08-07T05:58:37.733Z,18.00
2022-08-07T06:01:12.196Z,18.10
2022-08-07T06:03:58.553Z,18.10
2022-08-07T06:06:32.555Z,18.10
2022-08-07T06:09:04.839Z,18.10
2022-08-07T06:11:36.152Z,18.00
2022-08-07T06:14:11.953Z,17.90
2022-08-07T06:16:50.379Z,17.80
2022-08-07T06:19:47.826Z,18.10
2022-08-07T06:22:24.019Z,18.00
2022-08-07T06:25:05.597Z,18.00
2022-08-07T06:27:59.819Z,18.10
2022-08-07T06:30:35.131Z,18.00
2022-08-07T06:33:12.648Z,18.10
2022-08-07T06:35:47.998Z,18.10
2022-08-07T06:38:30.846Z,18.10
2022-08-07T06:41:00.340Z,18.10
2022-08-07T06:43:39.907Z,18.20
2022-08-07T06:46:20.482Z,18.30
2022-08-07T06:49:00.316Z,18.30
2022-08-07T06:51:35.797Z,18.40
2022-08-07T06:55:33.829Z,18.30
2022-08-07T06:57:09.272Z,18.20
2022-08-07T07:00:14.350Z,18.30
2022-08-07T07:02:54.553Z,18.40
2022-08-07T07:06:02.681Z,18.50
2022-08-07T07:08:07.316Z,18.60
2022-08-07T07:10:47.552Z,18.70
2022-08-07T07:13:57.583Z,18.80
2022-08-07T07:16:31.461Z,18.90
2022-08-07T07:19:54.637Z,18.90
2022-08-07T07:22:12.053Z,19.00
2022-08-07T07:24:58.419Z,19.10
2022-08-07T07:28:01.900Z,19.20
2022-08-07T07:30:38.366Z,19.30
2022-08-07T07:33:07.948Z,19.30
2022-08-07T07:35:44.002Z,19.40
2022-08-07T07:38:25.959Z,19.50
2022-08-07T07:41:02.478Z,19.60
2022-08-07T07:43:47.737Z,19.60
2022-08-07T07:46:36.710Z,19.50
2022-08-07T07:50:32.964Z,19.40
2022-08-07T07:52:03.756Z,19.70
2022-08-07T07:54:35.987Z,19.70
2022-08-07T07:57:03.616Z,19.80
2022-08-07T07:59:52.000Z,20.00
2022-08-07T08:02:22.551Z,20.10
2022-08-07T08:05:11.534Z,20.10
2022-08-07T08:07:59.623Z,20.20
2022-08-07T08:10:37.654Z,20.30
2022-08-07T08:13:10.407Z,20.40
2022-08-07T08:15:57.742Z,20.40
2022-08-07T08:18:28.050Z,20.50
2022-08-07T08:20:59.060Z,20.60
2022-08-07T08:23:47.126Z,20.80
2022-08-07T08:26:34.333Z,20.90
2022-08-07T08:29:04.322Z,21.10
2022-08-07T08:32:10.144Z,21.10
2022-08-07T08:34:33.769Z,21.20
2022-08-07T08:37:03.906Z,21.20
2022-08-07T08:39:38.936Z,21.30
2022-08-07T08:42:27.121Z,21.50
2022-08-07T08:45:13.977Z,21.50
2022-08-07T08:48:10.767Z,21.50
2022-08-07T08:51:03.428Z,21.60
2022-08-07T08:54:11.225Z,21.80
2022-08-07T08:56:47.170Z,21.90
2022-08-07T08:59:24.949Z,22.10
2022-08-07T09:02:36.754Z,22.10
2022-08-07T09:05:32.283Z,22.20
2022-08-07T09:08:35.753Z,22.20
2022-08-07T09:11:24.182Z,22.30
2022-08-07T09:14:10.066Z,22.40
2022-08-07T09:16:57.455Z,22.40
2022-08-07T09:19:51.183Z,22.60
2022-08-07T09:24:30.792Z,22.40
2022-08-07T09:25:54.683Z,22.60
2022-08-07T09:30:01.206Z,22.70
2022-08-07T09:31:48.515Z,22.90
2022-08-07T09:34:31.678Z,23.00
2022-08-07T09:37:07.551Z,23.10
2022-08-07T09:39:59.546Z,22.80
2022-08-07T09:42:51.252Z,23.40
2022-08-07T09:47:50.660Z,23.50
2022-08-07T09:48:55.873Z,23.40
2022-08-07T09:52:15.852Z,23.50
2022-08-07T09:55:29.318Z,23.80
2022-08-07T09:58:42.596Z,23.90
2022-08-07T10:01:53.833Z,24.00
2022-08-07T10:04:38.151Z,24.20
2022-08-07T10:07:52.566Z,24.30
2022-08-07T10:11:17.012Z,24.50
2022-08-07T10:14:01.360Z,24.40
2022-08-07T10:16:41.742Z,24.10
2022-08-07T10:19:18.928Z,24.80
2022-08-07T10:22:15.727Z,25.00
2022-08-07T10:25:07.056Z,24.90
2022-08-07T10:28:03.452Z,25.20
2022-08-07T10:31:10.967Z,25.50
2022-08-07T10:34:06.877Z,25.70
2022-08-07T10:38:00.316Z,25.90
2022-08-07T10:40:46.602Z,26.10
2022-08-07T10:43:34.159Z,26.00
2022-08-07T10:46:13.142Z,26.20
2022-08-07T10:49:02.413Z,26.30
2022-08-07T10:51:39.438Z,26.00
2022-08-07T10:55:20.944Z,26.20
2022-08-07T10:58:31.958Z,26.50
2022-08-07T11:01:22.255Z,26.80
2022-08-07T11:04:32.239Z,26.50
2022-08-07T11:08:00.504Z,26.70
2022-08-07T11:10:57.943Z,26.60
2022-08-07T11:14:43.826Z,26.80
2022-08-07T11:17:01.981Z,26.80
2022-08-07T11:20:11.545Z,27.20
2022-08-07T11:23:03.122Z,27.30
2022-08-07T11:25:57.497Z,27.30
2022-08-07T11:28:41.359Z,27.50
2022-08-07T11:31:36.773Z,27.60
2022-08-07T11:34:24.731Z,27.90
2022-08-07T11:37:00.800Z,27.80
2022-08-07T11:39:39.688Z,27.80
2022-08-07T11:42:30.556Z,27.70
2022-08-07T11:45:12.338Z,27.60
2022-08-07T11:48:18.142Z,28.10
2022-08-07T11:51:12.120Z,28.00
2022-08-07T11:54:10.849Z,28.30
2022-08-07T11:57:16.003Z,28.30
2022-08-07T12:00:12.602Z,27.80
2022-08-07T12:02:55.928Z,28.40
2022-08-07T12:05:47.286Z,28.70
2022-08-07T12:08:31.901Z,29.00
2022-08-07T12:11:21.876Z,29.00
2022-08-07T12:14:04.624Z,29.20
2022-08-07T12:16:41.170Z,28.70
2022-08-07T12:20:03.311Z,29.20
2022-08-07T12:22:58.446Z,28.30
2022-08-07T12:26:02.777Z,29.00
2022-08-07T12:28:54.041Z,28.30
2022-08-07T12:32:04.095Z,28.10
2022-08-07T12:34:38.886Z,28.40
2022-08-07T12:37:16.514Z,28.30
2022-08-07T12:39:50.708Z,28.40
2022-08-07T12:42:27.858Z,27.70
2022-08-07T12:44:58.739Z,28.50
2022-08-07T12:48:04.165Z,29.00
2022-08-07T12:51:00.098Z,28.90
2022-08-07T12:54:03.242Z,28.30
2022-08-07T12:56:42.346Z,29.10
2022-08-07T12:59:21.762Z,29.40
2022-08-07T13:02:25.078Z,29.50
2022-08-07T13:05:15.127Z,28.70
2022-08-07T13:08:25.835Z,27.90
2022-08-07T13:11:16.252Z,28.10
2022-08-07T13:14:31.276Z,28.20
2022-08-07T13:17:09.955Z,28.90
2022-08-07T13:19:51.713Z,29.00
2022-08-07T13:22:40.798Z,29.40
2022-08-07T13:25:29.924Z,29.70
2022-08-07T13:28:18.308Z,29.80
2022-08-07T13:31:01.981Z,29.60
2022-08-07T13:34:34.066Z,29.80
2022-08-07T13:36:40.403Z,29.60
2022-08-07T13:40:33.097Z,29.50
2022-08-07T13:42:21.629Z,30.00
2022-08-07T13:44:55.239Z,30.30
2022-08-07T13:48:06.017Z,30.20
2022-08-07T13:50:34.238Z,30.50
2022-08-07T13:53:22.028Z,30.20
2022-08-07T13:55:54.289Z,30.30
2022-08-07T13:58:56.494Z,30.30
2022-08-07T14:01:26.297Z,29.90
2022-08-07T14:04:07.634Z,30.20
2022-08-07T14:06:38.732Z,30.30
2022-08-07T14:09:09.990Z,30.40
2022-08-07T14:12:00.459Z,30.40
2022-08-07T14:14:43.029Z,30.20
2022-08-07T14:18:12.256Z,30.10
2022-08-07T14:20:42.000Z,30.00
2022-08-07T14:23:12.392Z,29.50
2022-08-07T14:25:45.967Z,29.70
2022-08-07T14:28:17.199Z,29.30
2022-08-07T14:30:52.093Z,29.50
2022-08-07T14:33:23.433Z,29.60
2022-08-07T14:35:57.350Z,29.80
2022-08-07T14:38:30.750Z,29.60
2022-08-07T14:41:02.205Z,29.70
2022-08-07T14:43:55.486Z,29.70
2022-08-07T14:46:31.095Z,29.80
2022-08-07T14:52:05.065Z,29.40
2022-08-07T14:54:43.395Z,29.50
2022-08-07T14:57:14.446Z,29.50
2022-08-07T15:02:39.180Z,29.20
2022-08-07T15:05:19.785Z,29.20
2022-08-07T15:07:52.030Z,29.40
2022-08-07T15:10:26.799Z,29.70
2022-08-07T15:13:06.419Z,29.30
2022-08-07T15:15:52.722Z,29.50
2022-08-07T15:18:36.186Z,29.60
2022-08-07T15:21:58.686Z,29.90
2022-08-07T15:25:13.714Z,29.80
2022-08-07T15:27:06.051Z,28.50
2022-08-07T15:30:06.467Z,29.00
2022-08-07T15:32:39.656Z,29.20
2022-08-07T15:36:01.259Z,29.10
2022-08-07T15:38:30.161Z,29.40
2022-08-07T15:44:00.306Z,28.80
2022-08-07T15:46:32.384Z,28.60
2022-08-07T15:49:15.269Z,28.90
2022-08-07T15:54:34.628Z,28.70
2022-08-07T15:57:10.688Z,28.80
2022-08-07T15:59:59.334Z,28.80
2022-08-07T16:02:35.438Z,28.60
2022-08-07T16:05:15.291Z,28.60
2022-08-07T16:08:32.926Z,28.10
2022-08-07T16:10:36.772Z,28.00
2022-08-07T16:13:39.623Z,27.70
2022-08-07T16:16:48.418Z,28.00
2022-08-07T16:20:00.541Z,28.10
2022-08-07T16:22:36.488Z,27.90
2022-08-07T16:25:55.474Z,27.70
2022-08-07T16:30:08.246Z,27.80
2022-08-07T16:31:51.922Z,27.70
2022-08-07T16:34:40.794Z,27.40
2022-08-07T16:38:06.588Z,27.30
2022-08-07T16:41:01.336Z,27.60
2022-08-07T16:44:05.815Z,27.80
2022-08-07T16:47:17.865Z,27.80
2022-08-07T16:50:27.838Z,27.70
2022-08-07T16:54:02.102Z,27.70
2022-08-07T16:56:37.518Z,27.80
2022-08-07T16:59:21.278Z,27.20
2022-08-07T17:02:15.135Z,27.40
2022-08-07T17:06:19.850Z,27.20
2022-08-07T17:09:08.737Z,27.40
2022-08-07T17:12:04.435Z,27.20
2022-08-07T17:15:00.132Z,26.90
2022-08-07T17:17:44.249Z,26.90
2022-08-07T17:20:37.827Z,26.90
2022-08-07T17:23:32.088Z,26.50
2022-08-07T17:26:22.616Z,26.40
2022-08-07T17:30:13.117Z,26.00
2022-08-07T17:32:30.713Z,26.40
2022-08-07T17:35:50.146Z,26.50
2022-08-07T17:38:33.349Z,26.30
2022-08-07T17:42:01.093Z,26.30
2022-08-07T17:44:09.309Z,26.20
2022-08-07T17:46:55.583Z,26.40
2022-08-07T17:49:26.002Z,26.30
2022-08-07T17:52:06.606Z,26.40
2022-08-07T17:54:54.562Z,26.40
2022-08-07T17:57:56.530Z,26.30
2022-08-07T18:00:34.722Z,26.20
2022-08-07T18:04:03.900Z,26.10
2022-08-07T18:06:46.152Z,25.70
2022-08-07T18:09:48.353Z,25.70
2022-08-07T18:12:52.756Z,25.30
2022-08-07T18:15:32.834Z,25.30
2022-08-07T18:18:45.766Z,25.60
2022-08-07T18:21:42.166Z,25.50
2022-08-07T18:24:08.971Z,25.60
2022-08-07T18:27:12.202Z,25.40
2022-08-07T18:30:32.282Z,25.30
2022-08-07T18:33:00.293Z,25.30
2022-08-07T18:35:53.702Z,25.10
2022-08-07T18:38:58.251Z,25.30
2022-08-07T18:41:49.478Z,25.20
2022-08-07T18:45:40.008Z,25.20
2022-08-07T18:48:00.557Z,25.30
2022-08-07T18:50:46.990Z,25.10
2022-08-07T18:53:39.695Z,25.20
2022-08-07T18:56:30.725Z,25.10
2022-08-07T18:59:47.522Z,25.00
2022-08-07T19:02:44.679Z,24.90
2022-08-07T19:05:22.941Z,24.80
2022-08-07T19:08:05.271Z,24.70
2022-08-07T19:10:51.733Z,24.60
2022-08-07T19:13:49.922Z,24.60
2022-08-07T19:17:01.161Z,24.60
2022-08-07T19:19:32.755Z,24.50
2022-08-07T19:22:14.888Z,24.40
2022-08-07T19:24:48.729Z,24.20
2022-08-07T19:29:03.546Z,24.20
2022-08-07T19:31:05.898Z,24.10
2022-08-07T19:33:10.283Z,24.10
2022-08-07T19:35:43.623Z,24.00
2022-08-07T19:38:17.221Z,23.90
2022-08-07T19:40:50.487Z,23.80
2022-08-07T19:43:48.737Z,23.80
2022-08-07T19:46:17.820Z,23.80
2022-08-07T19:48:53.968Z,23.70
2022-08-07T19:51:50.717Z,23.50
2022-08-07T19:54:33.607Z,23.60
2022-08-07T19:58:04.126Z,23.50
2022-08-07T19:59:56.216Z,23.60
2022-08-07T20:02:35.220Z,23.50
2022-08-07T20:05:08.698Z,23.50
2022-08-07T20:07:47.396Z,23.40
2022-08-07T20:10:36.214Z,23.30
2022-08-07T20:13:27.026Z,23.30
2022-08-07T20:15:58.271Z,23.30
2022-08-07T20:18:31.933Z,23.30
2022-08-07T20:21:02.535Z,23.30
2022-08-07T20:23:43.334Z,23.30
2022-08-07T20:26:20.441Z,23.00
2022-08-07T20:28:59.785Z,22.80
2022-08-07T20:31:29.012Z,22.90
2022-08-07T20:33:58.635Z,22.80
2022-08-07T20:36:30.853Z,22.90
2022-08-07T20:39:00.745Z,22.70
2022-08-07T20:41:38.457Z,22.70
2022-08-07T20:44:12.505Z,22.70
2022-08-07T20:46:43.714Z,22.60
2022-08-07T20:49:57.995Z,22.70
2022-08-07T20:52:16.597Z,22.40
2022-08-07T20:54:53.186Z,22.40
2022-08-07T20:57:28.172Z,22.20
2022-08-07T21:00:07.624Z,22.20
2022-08-07T21:03:00.721Z,22.30
2022-08-07T21:05:51.484Z,22.20
2022-08-07T21:08:36.743Z,22.10
2022-08-07T21:11:07.406Z,22.30
2022-08-07T21:13:57.837Z,22.20
2022-08-07T21:16:27.449Z,22.30
2022-08-07T21:18:58.086Z,22.10
2022-08-07T21:21:29.304Z,22.30
2022-08-07T21:24:24.985Z,22.20
2022-08-07T21:27:26.782Z,22.00
2022-08-07T21:30:14.197Z,22.00
2022-08-07T21:33:21.473Z,21.90
2022-08-07T21:36:32.065Z,21.60
2022-08-07T21:38:59.775Z,21.70
2022-08-07T21:41:52.217Z,21.50
2022-08-07T21:44:30.031Z,21.70
2022-08-07T21:47:04.860Z,21.60
2022-08-07T21:50:00.926Z,21.80
2022-08-07T21:53:00.783Z,21.70
2022-08-07T21:55:48.120Z,21.80
2022-08-07T21:58:32.997Z,21.70
2022-08-07T22:01:13.615Z,21.70
2022-08-07T22:03:48.369Z,21.50
2022-08-07T22:06:28.897Z,21.60
2022-08-07T22:09:12.316Z,21.20
2022-08-07T22:11:53.059Z,21.10
2022-08-07T22:14:59.752Z,21.10
2022-08-07T22:17:36.878Z,21.00
2022-08-07T22:20:37.651Z,21.10
2022-08-07T22:23:40.264Z,21.50
2022-08-07T22:26:19.842Z,21.20
2022-08-07T22:29:37.995Z,20.90
2022-08-07T22:32:38.054Z,20.90
2022-08-07T22:35:11.035Z,20.90
2022-08-07T22:38:12.241Z,20.90
2022-08-07T22:41:03.088Z,20.70
2022-08-07T22:43:48.914Z,20.60
2022-08-07T22:46:43.145Z,20.80
2022-08-07T22:49:28.179Z,20.60
2022-08-07T22:52:40.068Z,20.50
2022-08-07T22:55:29.931Z,20.90
2022-08-07T22:58:13.083Z,20.80
2022-08-07T23:01:07.514Z,20.80
2022-08-07T23:04:03.492Z,20.50
2022-08-07T23:06:42.867Z,20.70
2022-08-07T23:10:05.452Z,20.80
2022-08-07T23:12:45.609Z,20.50
2022-08-07T23:15:21.880Z,20.50
2022-08-07T23:18:18.957Z,20.30
2022-08-07T23:21:05.830Z,20.40
2022-08-07T23:24:05.639Z,20.20
2022-08-07T23:26:50.304Z,20.20
2022-08-07T23:30:39.125Z,20.00
2022-08-07T23:34:34.162Z,19.90
2022-08-07T23:35:47.326Z,20.00
2022-08-07T23:39:00.113Z,20.30
2022-08-07T23:41:47.521Z,20.20
2022-08-07T23:44:51.466Z,20.50
2022-08-07T23:47:51.935Z,20.40
2022-08-07T23:50:37.639Z,20.20
2022-08-07T23:53:51.798Z,20.00
2022-08-07T23:56:34.972Z,19.90
